createdAt,value
2018-05-17T00:00:22.776Z,12.40
2018-05-17T00:02:50.490Z,12.40
2018-05-17T00:05:18.280Z,12.30
2018-05-17T00:07:46.026Z,12.10
2018-05-17T00:10:13.727Z,12.20
2018-05-17T00:12:41.477Z,12.20
2018-05-17T00:15:09.173Z,12.30
2018-05-17T00:17:37.661Z,12.40
2018-05-17T00:20:06.874Z,12.40
2018-05-17T00:22:35.359Z,12.30
2018-05-17T00:25:03.853Z,12.10
2018-05-17T00:27:32.330Z,12.10
2018-05-17T00:30:00.786Z,11.90
2018-05-17T00:32:28.532Z,11.90
2018-05-17T00:34:56.240Z,11.90
2018-05-17T00:37:24.727Z,11.90
2018-05-17T00:39:52.446Z,11.90
2018-05-17T00:42:20.174Z,11.90
2018-05-17T00:44:47.872Z,11.70
2018-05-17T00:47:15.593Z,11.70
2018-05-17T00:49:44.041Z,11.70
2018-05-17T00:52:12.539Z,11.70
2018-05-17T00:54:41.019Z,11.70
2018-05-17T00:57:08.739Z,11.70
2018-05-17T00:59:36.441Z,11.80
2018-05-17T01:02:04.145Z,11.80
2018-05-17T01:04:31.804Z,11.80
2018-05-17T01:06:59.518Z,11.80
2018-05-17T01:09:27.204Z,11.80
2018-05-17T01:11:55.706Z,11.70
2018-05-17T01:14:23.391Z,11.70
2018-05-17T01:16:51.193Z,11.70
2018-05-17T01:19:19.333Z,11.60
2018-05-17T01:21:47.135Z,11.50
2018-05-17T01:24:14.871Z,11.50
2018-05-17T01:26:42.569Z,11.50
2018-05-17T01:29:10.715Z,11.40
2018-05-17T01:31:38.432Z,11.40
2018-05-17T01:34:07.258Z,11.10
2018-05-17T01:36:34.995Z,11.10
2018-05-17T01:39:02.695Z,11.00
2018-05-17T01:41:30.484Z,10.90
2018-05-17T01:43:58.232Z,11.00
2018-05-17T01:46:25.924Z,11.10
2018-05-17T01:48:53.672Z,11.20
2018-05-17T01:51:21.351Z,11.20
2018-05-17T01:53:49.828Z,11.00
2018-05-17T01:56:17.538Z,11.00
2018-05-17T01:58:46.012Z,11.00
2018-05-17T02:01:14.443Z,10.90
2018-05-17T02:03:42.194Z,10.90
2018-05-17T02:06:09.915Z,10.90
2018-05-17T02:08:38.404Z,11.10
2018-05-17T02:11:06.091Z,11.10
2018-05-17T02:13:33.832Z,11.00
2018-05-17T02:16:02.308Z,10.90
2018-05-17T02:18:30.016Z,10.80
2018-05-17T02:20:57.737Z,10.90
2018-05-17T02:23:25.424Z,10.80
2018-05-17T02:25:53.145Z,10.70
2018-05-17T02:28:20.832Z,10.80
2018-05-17T02:30:49.352Z,10.40
2018-05-17T02:33:17.032Z,10.40
2018-05-17T02:35:44.740Z,10.10
2018-05-17T02:38:12.442Z,9.90
2018-05-17T02:40:40.143Z,9.90
2018-05-17T02:43:07.833Z,9.80
2018-05-17T02:45:36.313Z,9.80
2018-05-17T02:48:04.051Z,9.80
2018-05-17T02:50:31.754Z,9.80
2018-05-17T02:52:59.474Z,9.90
2018-05-17T02:55:27.167Z,10.00
2018-05-17T02:57:55.675Z,10.00
2018-05-17T03:00:23.383Z,10.00
2018-05-17T03:02:51.861Z,9.90
2018-05-17T03:05:19.569Z,9.90
2018-05-17T03:07:48.034Z,9.90
2018-05-17T03:10:15.752Z,9.90
2018-05-17T03:12:43.442Z,9.90
2018-05-17T03:15:11.143Z,9.90
2018-05-17T03:17:39.580Z,9.70
2018-05-17T03:20:07.293Z,9.70
2018-05-17T03:22:34.980Z,9.70
2018-05-17T03:25:02.688Z,9.70
2018-05-17T03:27:30.362Z,9.80
2018-05-17T03:29:58.094Z,9.90
2018-05-17T03:32:25.781Z,10.00
2018-05-17T03:34:53.485Z,10.00
2018-05-17T03:37:21.180Z,9.90
2018-05-17T03:39:48.893Z,10.10
2018-05-17T03:42:17.354Z,10.10
2018-05-17T03:44:45.226Z,10.10
2018-05-17T03:47:12.885Z,10.10
2018-05-17T03:49:40.645Z,10.20
2018-05-17T03:52:09.730Z,10.20
2018-05-17T03:54:37.391Z,10.20
2018-05-17T03:57:05.109Z,10.30
2018-05-17T03:59:32.844Z,10.30
2018-05-17T04:02:06.508Z,10.30
2018-05-17T04:04:40.057Z,10.30
2018-05-17T04:07:08.149Z,10.40
2018-05-17T04:09:36.684Z,10.50
2018-05-17T04:12:04.360Z,10.50
2018-05-17T04:14:32.184Z,10.50
2018-05-17T04:16:59.912Z,10.50
2018-05-17T04:19:27.612Z,10.50
2018-05-17T04:21:55.751Z,10.50
2018-05-17T04:24:24.236Z,10.40
2018-05-17T04:26:51.948Z,10.40
2018-05-17T04:29:19.724Z,10.50
2018-05-17T04:31:47.340Z,10.40
2018-05-17T04:34:15.805Z,10.50
2018-05-17T04:36:43.509Z,10.50
2018-05-17T04:39:11.230Z,10.60
2018-05-17T04:41:38.919Z,10.40
2018-05-17T04:44:06.616Z,10.30
2018-05-17T04:46:34.367Z,10.10
2018-05-17T04:49:02.044Z,10.10
2018-05-17T04:51:29.845Z,10.30
2018-05-17T04:53:57.530Z,10.60
2018-05-17T04:56:26.064Z,10.60
2018-05-17T04:58:53.816Z,10.60
2018-05-17T05:01:21.532Z,10.70
2018-05-17T05:03:49.992Z,10.60
2018-05-17T05:06:17.732Z,10.60
2018-05-17T05:08:45.436Z,10.70
2018-05-17T05:11:13.155Z,10.40
2018-05-17T05:13:40.890Z,10.20
2018-05-17T05:16:08.560Z,10.20
2018-05-17T05:18:37.004Z,10.20
2018-05-17T05:21:04.727Z,10.20
2018-05-17T05:23:32.472Z,10.30
2018-05-17T05:26:00.990Z,10.60
2018-05-17T05:28:28.681Z,10.60
2018-05-17T05:30:56.412Z,10.70
2018-05-17T05:33:24.113Z,10.70
2018-05-17T05:35:51.861Z,10.50
2018-05-17T05:38:19.566Z,10.20
2018-05-17T05:40:48.120Z,10.00
2018-05-17T05:43:15.859Z,9.90
2018-05-17T05:45:43.680Z,10.10
2018-05-17T05:48:11.833Z,10.00
2018-05-17T05:50:40.066Z,10.20
2018-05-17T05:53:09.237Z,10.00
2018-05-17T05:55:38.814Z,10.00
2018-05-17T05:58:06.529Z,10.20
2018-05-17T06:00:34.239Z,10.40
2018-05-17T06:03:01.958Z,10.20
2018-05-17T06:05:29.654Z,10.20
2018-05-17T06:07:57.413Z,10.40
2018-05-17T06:10:25.225Z,10.70
2018-05-17T06:12:53.836Z,10.80
2018-05-17T06:15:21.544Z,10.80
2018-05-17T06:17:50.085Z,10.60
2018-05-17T06:20:17.788Z,10.60
2018-05-17T06:22:45.570Z,10.30
2018-05-17T06:25:13.268Z,10.40
2018-05-17T06:27:41.795Z,10.50
2018-05-17T06:30:12.601Z,10.50
2018-05-17T06:32:40.518Z,10.60
2018-05-17T06:35:08.184Z,10.50
2018-05-17T06:37:35.910Z,10.60
2018-05-17T06:40:03.584Z,10.70
2018-05-17T06:42:31.308Z,10.70
2018-05-17T06:44:58.996Z,10.80
2018-05-17T06:47:26.760Z,11.00
2018-05-17T06:49:54.491Z,11.20
2018-05-17T06:52:22.164Z,11.50
2018-05-17T06:54:49.918Z,11.80
2018-05-17T06:57:17.616Z,11.90
2018-05-17T06:59:45.318Z,11.90
2018-05-17T07:02:13.028Z,11.20
2018-05-17T07:04:40.708Z,11.10
2018-05-17T07:07:08.413Z,11.30
2018-05-17T07:09:36.142Z,11.30
2018-05-17T07:12:03.881Z,11.30
2018-05-17T07:14:31.563Z,11.40
2018-05-17T07:16:59.424Z,11.50
2018-05-17T07:19:27.181Z,11.50
2018-05-17T07:21:54.892Z,11.60
2018-05-17T07:24:23.370Z,11.90
2018-05-17T07:26:51.151Z,11.90
2018-05-17T07:29:18.867Z,11.80
2018-05-17T07:31:47.332Z,11.80
2018-05-17T07:34:15.070Z,11.70
2018-05-17T07:36:42.755Z,11.90
2018-05-17T07:39:10.484Z,12.10
2018-05-17T07:41:38.159Z,12.20
2018-05-17T07:44:05.907Z,12.30
2018-05-17T07:46:34.676Z,11.50
2018-05-17T07:49:02.300Z,11.50
2018-05-17T07:51:30.817Z,11.30
2018-05-17T07:53:58.544Z,11.30
2018-05-17T07:56:26.233Z,11.50
2018-05-17T07:58:53.948Z,11.60
2018-05-17T08:01:21.663Z,11.60
2018-05-17T08:03:49.360Z,11.30
2018-05-17T08:06:17.061Z,11.50
2018-05-17T08:08:45.567Z,11.80
2018-05-17T08:11:13.998Z,12.10
2018-05-17T08:13:41.731Z,12.00
2018-05-17T08:16:09.436Z,12.10
2018-05-17T08:18:37.243Z,12.20
2018-05-17T08:21:04.870Z,12.20
2018-05-17T08:23:32.580Z,12.20
2018-05-17T08:26:00.304Z,12.40
2018-05-17T08:28:28.797Z,12.60
2018-05-17T08:30:56.500Z,12.60
2018-05-17T08:33:24.214Z,12.20
2018-05-17T08:35:51.895Z,12.20
2018-05-17T08:38:20.375Z,12.90
2018-05-17T08:40:48.844Z,13.00
2018-05-17T08:43:16.537Z,13.00
2018-05-17T08:45:44.361Z,13.00
2018-05-17T08:48:11.977Z,13.10
2018-05-17T08:50:39.687Z,13.20
2018-05-17T08:53:07.381Z,13.10
2018-05-17T08:55:35.117Z,12.20
2018-05-17T08:58:02.802Z,12.20
2018-05-17T09:00:31.288Z,12.50
2018-05-17T09:02:59.781Z,12.70
2018-05-17T09:05:28.302Z,12.90
2018-05-17T09:07:56.020Z,12.80
2018-05-17T09:10:24.548Z,13.20
2018-05-17T09:12:52.203Z,13.20
2018-05-17T09:15:19.959Z,13.00
2018-05-17T09:17:47.730Z,13.00
2018-05-17T09:20:15.695Z,12.90
2018-05-17T09:22:43.239Z,13.00
2018-05-17T09:25:11.720Z,12.90
2018-05-17T09:27:40.202Z,12.60
2018-05-17T09:30:08.663Z,12.90
2018-05-17T09:32:36.392Z,12.80
2018-05-17T09:35:04.086Z,13.30
2018-05-17T09:37:32.571Z,13.40
2018-05-17T09:40:00.603Z,13.40
2018-05-17T09:42:28.290Z,13.60
2018-05-17T09:44:56.016Z,13.50
2018-05-17T09:47:23.691Z,13.10
2018-05-17T09:49:51.421Z,13.40
2018-05-17T09:52:19.869Z,13.30
2018-05-17T09:54:48.082Z,13.30
2018-05-17T09:57:16.570Z,13.80
2018-05-17T09:59:45.034Z,13.90
2018-05-17T10:02:13.505Z,14.30
2018-05-17T10:04:41.208Z,14.30
2018-05-17T10:07:08.941Z,14.40
2018-05-17T10:09:36.621Z,14.20
2018-05-17T10:12:04.350Z,14.00
2018-05-17T10:14:32.108Z,14.10
2018-05-17T10:16:59.800Z,14.40
2018-05-17T10:19:27.509Z,14.60
2018-05-17T10:21:55.301Z,14.80
2018-05-17T10:24:23.695Z,14.80
2018-05-17T10:26:51.468Z,14.80
2018-05-17T10:29:19.151Z,14.50
2018-05-17T10:31:47.647Z,13.90
2018-05-17T10:34:15.373Z,13.90
2018-05-17T10:36:44.039Z,14.40
2018-05-17T10:39:11.687Z,14.40
2018-05-17T10:41:39.420Z,14.10
2018-05-17T10:44:07.888Z,13.60
2018-05-17T10:46:35.613Z,13.60
2018-05-17T10:49:03.375Z,13.70
2018-05-17T10:51:31.033Z,14.00
2018-05-17T10:53:58.741Z,14.30
2018-05-17T10:56:27.231Z,14.80
2018-05-17T10:58:55.698Z,15.00
2018-05-17T11:01:23.440Z,15.00
2018-05-17T11:03:51.152Z,15.20
2018-05-17T11:06:18.866Z,15.10
2018-05-17T11:08:47.092Z,14.80
2018-05-17T11:11:14.802Z,14.80
2018-05-17T11:13:42.468Z,14.80
2018-05-17T11:16:10.176Z,14.90
2018-05-17T11:18:38.703Z,15.20
2018-05-17T11:21:06.415Z,15.20
2018-05-17T11:23:35.097Z,15.40
2018-05-17T11:26:02.845Z,15.00
2018-05-17T11:28:30.460Z,14.70
2018-05-17T11:30:58.155Z,14.90
2018-05-17T11:33:25.886Z,15.10
2018-05-17T11:35:54.353Z,15.00
2018-05-17T11:38:22.862Z,14.80
2018-05-17T11:40:50.688Z,14.80
2018-05-17T11:43:18.397Z,14.90
2018-05-17T11:45:46.155Z,15.10
2018-05-17T11:48:13.849Z,15.30
2018-05-17T11:50:41.693Z,15.30
2018-05-17T11:53:09.557Z,15.20
2018-05-17T11:55:37.309Z,14.90
2018-05-17T11:58:05.025Z,15.20
2018-05-17T12:00:32.743Z,15.30
2018-05-17T12:03:01.168Z,15.20
2018-05-17T12:05:28.938Z,15.20
2018-05-17T12:07:57.850Z,15.40
2018-05-17T12:10:26.309Z,15.50
2018-05-17T12:12:54.863Z,15.20
2018-05-17T12:15:22.612Z,15.20
2018-05-17T12:17:50.373Z,15.00
2018-05-17T12:20:18.057Z,15.00
2018-05-17T12:22:46.660Z,14.90
2018-05-17T12:25:14.329Z,14.90
2018-05-17T12:27:42.057Z,15.00
2018-05-17T12:30:09.801Z,15.10
2018-05-17T12:32:37.572Z,15.30
2018-05-17T12:35:05.481Z,15.20
2018-05-17T12:37:34.045Z,15.30
2018-05-17T12:40:01.759Z,15.40
2018-05-17T12:42:30.436Z,15.40
2018-05-17T12:44:58.262Z,15.40
2018-05-17T12:47:27.680Z,15.30
2018-05-17T12:49:55.456Z,15.30
2018-05-17T12:52:24.472Z,15.30
2018-05-17T12:54:53.028Z,15.70
2018-05-17T12:57:20.794Z,15.60
2018-05-17T12:59:48.556Z,15.90
2018-05-17T13:02:16.346Z,16.00
2018-05-17T13:04:44.093Z,15.90
2018-05-17T13:07:11.865Z,15.90
2018-05-17T13:09:39.641Z,16.00
2018-05-17T13:12:07.372Z,16.20
2018-05-17T13:14:35.951Z,16.10
2018-05-17T13:17:03.687Z,16.30
2018-05-17T13:19:31.478Z,16.00
2018-05-17T13:21:59.967Z,16.30
2018-05-17T13:24:27.727Z,16.30
2018-05-17T13:26:55.501Z,16.10
2018-05-17T13:29:23.414Z,16.30
2018-05-17T13:31:51.162Z,16.40
2018-05-17T13:34:18.943Z,16.40
2018-05-17T13:36:46.733Z,16.60
2018-05-17T13:39:14.498Z,16.60
2018-05-17T13:41:43.028Z,16.90
2018-05-17T13:44:10.716Z,16.80
2018-05-17T13:46:38.815Z,16.80
2018-05-17T13:49:06.612Z,16.60
2018-05-17T13:51:34.364Z,16.60
2018-05-17T13:54:02.881Z,16.30
2018-05-17T13:56:30.603Z,16.30
2018-05-17T13:58:59.272Z,16.50
2018-05-17T14:01:26.950Z,16.50
2018-05-17T14:03:55.040Z,16.50
2018-05-17T14:06:22.765Z,16.30
2018-05-17T14:08:50.519Z,16.50
2018-05-17T14:11:18.298Z,16.80
2018-05-17T14:13:46.879Z,16.70
2018-05-17T14:16:14.557Z,16.70
2018-05-17T14:18:42.332Z,16.60
2018-05-17T14:21:10.013Z,16.60
2018-05-17T14:23:37.837Z,16.80
2018-05-17T14:26:05.625Z,16.90
2018-05-17T14:28:34.160Z,17.20
2018-05-17T14:31:03.710Z,17.20
2018-05-17T14:33:31.473Z,17.10
2018-05-17T14:35:59.202Z,17.00
2018-05-17T14:38:26.942Z,17.00
2018-05-17T14:40:54.655Z,16.90
2018-05-17T14:43:22.619Z,17.00
2018-05-17T14:45:50.338Z,17.00
2018-05-17T14:48:18.069Z,17.00
2018-05-17T14:50:45.762Z,16.70
2018-05-17T14:53:13.504Z,16.90
2018-05-17T14:55:41.234Z,16.90
2018-05-17T14:58:08.973Z,16.90
2018-05-17T15:00:36.752Z,16.90
2018-05-17T15:03:04.510Z,17.10
2018-05-17T15:05:33.340Z,17.20
2018-05-17T15:08:01.070Z,17.10
2018-05-17T15:10:28.771Z,17.20
2018-05-17T15:12:56.533Z,17.30
2018-05-17T15:15:24.222Z,17.40
2018-05-17T15:17:52.774Z,17.40
2018-05-17T15:20:20.512Z,17.40
2018-05-17T15:22:48.214Z,17.20
2018-05-17T15:25:15.947Z,17.20
2018-05-17T15:27:43.751Z,17.20
2018-05-17T15:30:11.448Z,17.40
2018-05-17T15:32:39.184Z,17.60
2018-05-17T15:35:08.374Z,17.90
2018-05-17T15:37:36.071Z,17.80
2018-05-17T15:40:04.914Z,17.70
2018-05-17T15:42:32.682Z,17.70
2018-05-17T15:45:01.285Z,17.60
2018-05-17T15:47:29.774Z,17.40
2018-05-17T15:49:57.517Z,17.40
2018-05-17T15:52:25.250Z,17.40
2018-05-17T15:54:53.304Z,17.40
2018-05-17T15:57:21.001Z,17.40
2018-05-17T15:59:48.765Z,17.50
2018-05-17T16:02:16.484Z,17.60
2018-05-17T16:04:44.216Z,17.70
2018-05-17T16:07:12.023Z,17.70
2018-05-17T16:09:40.509Z,17.50
2018-05-17T16:12:10.004Z,17.40
2018-05-17T16:14:38.785Z,17.40
2018-05-17T16:17:07.172Z,17.60
2018-05-17T16:19:34.929Z,17.60
2018-05-17T16:22:02.671Z,17.60
2018-05-17T16:24:30.929Z,17.60
2018-05-17T16:26:58.657Z,17.60
2018-05-17T16:29:27.715Z,17.70
2018-05-17T16:31:55.406Z,17.70
2018-05-17T16:34:24.071Z,17.70
2018-05-17T16:36:51.820Z,17.60
2018-05-17T16:39:19.635Z,17.60
2018-05-17T16:41:47.350Z,17.50
2018-05-17T16:44:15.123Z,17.40
2018-05-17T16:46:43.050Z,17.30
2018-05-17T16:49:10.817Z,17.10
2018-05-17T16:51:38.594Z,17.20
2018-05-17T16:54:06.387Z,17.10
2018-05-17T16:56:34.090Z,17.10
2018-05-17T16:59:01.824Z,17.20
2018-05-17T17:01:29.616Z,17.20
2018-05-17T17:03:57.325Z,17.20
2018-05-17T17:06:25.056Z,17.20
2018-05-17T17:08:52.768Z,17.20
2018-05-17T17:11:20.966Z,17.30
2018-05-17T17:13:49.289Z,17.40
2018-05-17T17:16:18.238Z,17.40
2018-05-17T17:18:45.942Z,17.40
2018-05-17T17:21:14.488Z,17.40
2018-05-17T17:23:42.836Z,17.30
2018-05-17T17:26:12.323Z,17.40
2018-05-17T17:28:40.802Z,17.20
2018-05-17T17:31:10.335Z,17.20
2018-05-17T17:33:39.379Z,17.10
2018-05-17T17:36:07.889Z,17.10
2018-05-17T17:38:36.171Z,17.10
2018-05-17T17:41:04.285Z,17.00
2018-05-17T17:43:33.527Z,17.00
2018-05-17T17:46:02.041Z,16.70
2018-05-17T17:48:29.757Z,16.70
2018-05-17T17:50:58.872Z,16.50
2018-05-17T17:53:28.138Z,16.50
2018-05-17T17:55:55.998Z,16.70
2018-05-17T17:58:23.753Z,16.80
2018-05-17T18:00:51.522Z,16.70
2018-05-17T18:03:20.084Z,16.70
2018-05-17T18:05:47.891Z,16.60
2018-05-17T18:08:15.656Z,16.60
2018-05-17T18:10:44.910Z,16.50
2018-05-17T18:13:13.738Z,16.60
2018-05-17T18:15:42.016Z,16.50
2018-05-17T18:18:09.873Z,16.40
2018-05-17T18:20:38.072Z,16.30
2018-05-17T18:23:06.588Z,16.20
2018-05-17T18:25:34.546Z,16.20
2018-05-17T18:28:02.285Z,16.00
2018-05-17T18:30:31.025Z,15.80
2018-05-17T18:32:59.241Z,15.80
2018-05-17T18:35:29.051Z,15.40
2018-05-17T18:37:56.963Z,15.40
2018-05-17T18:40:25.768Z,15.50
2018-05-17T18:42:54.528Z,15.50
2018-05-17T18:45:23.086Z,15.50
2018-05-17T18:47:51.184Z,15.50
2018-05-17T18:50:21.565Z,15.30
2018-05-17T18:52:50.079Z,15.30
2018-05-17T18:55:22.914Z,15.10
2018-05-17T18:57:47.235Z,15.10
2018-05-17T19:00:16.275Z,15.10
2018-05-17T19:02:45.286Z,14.80
2018-05-17T19:05:13.162Z,14.80
2018-05-17T19:07:42.216Z,14.70
2018-05-17T19:10:10.236Z,14.70
2018-05-17T19:12:41.105Z,14.80
2018-05-17T19:15:09.379Z,14.70
2018-05-17T19:17:39.808Z,14.50
2018-05-17T19:20:09.961Z,14.40
2018-05-17T19:22:41.366Z,14.40
2018-05-17T19:25:10.085Z,14.20
2018-05-17T19:27:38.522Z,14.20
2018-05-17T19:30:06.541Z,14.00
2018-05-17T19:32:35.184Z,14.00
2018-05-17T19:35:02.940Z,13.90
2018-05-17T19:37:30.779Z,13.90
2018-05-17T19:39:58.598Z,13.70
2018-05-17T19:42:26.385Z,13.60
2018-05-17T19:44:56.520Z,13.40
2018-05-17T19:47:24.421Z,13.40
2018-05-17T19:49:53.643Z,13.40
2018-05-17T19:52:22.825Z,13.40
2018-05-17T19:54:51.393Z,13.40
2018-05-17T19:57:21.132Z,13.30
2018-05-17T19:59:50.252Z,13.30
2018-05-17T20:02:18.806Z,13.40
2018-05-17T20:04:46.561Z,13.40
2018-05-17T20:07:15.402Z,13.30
2018-05-17T20:09:43.162Z,13.30
2018-05-17T20:12:10.958Z,13.30
2018-05-17T20:14:41.860Z,13.30
2018-05-17T20:17:09.779Z,13.20
2018-05-17T20:19:37.602Z,13.20
2018-05-17T20:22:05.495Z,13.20
2018-05-17T20:24:33.368Z,13.30
2018-05-17T20:27:02.219Z,13.20
2018-05-17T20:29:30.196Z,13.20
2018-05-17T20:31:57.967Z,13.20
2018-05-17T20:34:26.910Z,13.20
2018-05-17T20:36:54.733Z,13.20
2018-05-17T20:39:22.543Z,13.00
2018-05-17T20:41:50.394Z,12.80
2018-05-17T20:44:18.881Z,12.70
2018-05-17T20:46:47.397Z,12.60
2018-05-17T20:49:15.140Z,12.60
2018-05-17T20:51:44.814Z,12.60
2018-05-17T20:54:12.633Z,12.60
2018-05-17T20:56:40.384Z,12.50
2018-05-17T20:59:08.706Z,12.40
2018-05-17T21:01:36.460Z,12.30
2018-05-17T21:04:04.192Z,12.20
2018-05-17T21:06:31.921Z,12.20
2018-05-17T21:08:59.696Z,12.30
2018-05-17T21:11:27.461Z,12.40
2018-05-17T21:13:55.943Z,12.30
2018-05-17T21:16:23.749Z,12.30
2018-05-17T21:18:51.590Z,12.30
2018-05-17T21:21:20.235Z,12.50
2018-05-17T21:23:47.946Z,12.50
2018-05-17T21:26:15.693Z,12.40
2018-05-17T21:28:44.196Z,12.30
2018-05-17T21:31:11.963Z,12.20
2018-05-17T21:33:39.748Z,12.30
2018-05-17T21:36:07.469Z,12.20
2018-05-17T21:38:35.981Z,12.10
2018-05-17T21:41:04.454Z,12.00
2018-05-17T21:43:32.257Z,12.00
2018-05-17T21:46:00.002Z,12.00
2018-05-17T21:48:27.734Z,12.10
2018-05-17T21:50:56.248Z,12.20
2018-05-17T21:53:24.001Z,12.20
2018-05-17T21:55:51.756Z,12.40
2018-05-17T21:58:19.485Z,12.30
2018-05-17T22:00:47.190Z,12.40
2018-05-17T22:03:15.010Z,12.40
2018-05-17T22:05:43.526Z,12.50
2018-05-17T22:08:12.040Z,12.60
2018-05-17T22:10:39.769Z,12.60
2018-05-17T22:13:08.256Z,12.50
2018-05-17T22:15:36.900Z,12.50
2018-05-17T22:18:04.601Z,12.50
2018-05-17T22:20:32.383Z,12.50
2018-05-17T22:23:00.182Z,12.50
2018-05-17T22:25:27.846Z,12.50
2018-05-17T22:27:55.589Z,12.50
2018-05-17T22:30:23.305Z,12.30
2018-05-17T22:32:51.015Z,12.10
2018-05-17T22:35:18.726Z,12.10
2018-05-17T22:37:46.440Z,12.20
2018-05-17T22:40:14.148Z,12.10
2018-05-17T22:42:41.885Z,12.10
2018-05-17T22:45:09.639Z,12.20
2018-05-17T22:47:37.401Z,12.20
2018-05-17T22:50:05.162Z,12.10
2018-05-17T22:52:33.630Z,12.20
2018-05-17T22:55:02.158Z,12.00
2018-05-17T22:57:44.699Z,12.00
2018-05-17T23:00:13.246Z,11.80
2018-05-17T23:02:40.763Z,11.90
2018-05-17T23:05:08.511Z,11.90
2018-05-17T23:07:40.131Z,11.90
2018-05-17T23:10:07.867Z,11.90
2018-05-17T23:12:36.340Z,12.00
2018-05-17T23:15:04.843Z,12.00
2018-05-17T23:17:32.559Z,12.00
2018-05-17T23:20:00.250Z,12.00
2018-05-17T23:22:34.716Z,11.90
2018-05-17T23:25:02.481Z,11.90
2018-05-17T23:27:30.257Z,11.90
2018-05-17T23:29:58.001Z,11.90
2018-05-17T23:32:25.730Z,11.90
2018-05-17T23:34:54.230Z,12.10
2018-05-17T23:37:21.933Z,12.10
2018-05-17T23:39:49.623Z,12.10
2018-05-17T23:42:17.334Z,12.00
2018-05-17T23:44:45.056Z,12.00
2018-05-17T23:47:12.785Z,12.10
2018-05-17T23:49:40.496Z,12.00
2018-05-17T23:52:08.967Z,12.00
2018-05-17T23:54:37.473Z,12.10
2018-05-17T23:57:05.935Z,12.00
2018-05-17T23:59:34.472Z,11.80
